sensor_id;sensor_type;location;lat;lon;timestamp;pressure;altitude;pressure_sealevel;temperature;humidity
72857;BME280;62742;52.136;4.500;2023-09-19T00:00:41;100722.81;;;16.06;62.92
72857;BME280;62742;52.136;4.500;2023-09-19T00:03:08;100722.94;;;16.03;62.94
72857;BME280;62742;52.136;4.500;2023-09-19T00:05:36;100725.28;;;15.88;63.64
72857;BME280;62742;52.136;4.500;2023-09-19T00:08:11;100730.44;;;15.92;63.25
72857;BME280;62742;52.136;4.500;2023-09-19T00:10:39;100735.28;;;16.04;63.75
72857;BME280;62742;52.136;4.500;2023-09-19T00:13:08;100725.97;;;15.94;63.11
72857;BME280;62742;52.136;4.500;2023-09-19T00:15:41;100737.25;;;15.99;64.19
72857;BME280;62742;52.136;4.500;2023-09-19T00:18:15;100734.59;;;15.99;64.15
72857;BME280;62742;52.136;4.500;2023-09-19T00:20:44;100731.94;;;15.99;63.63
72857;BME280;62742;52.136;4.500;2023-09-19T00:23:15;100733.56;;;15.79;64.48
72857;BME280;62742;52.136;4.500;2023-09-19T00:25:41;100736.41;;;15.97;65.67
72857;BME280;62742;52.136;4.500;2023-09-19T00:28:08;100736.78;;;15.87;65.12
72857;BME280;62742;52.136;4.500;2023-09-19T00:30:35;100750.03;;;15.87;65.64
72857;BME280;62742;52.136;4.500;2023-09-19T00:33:04;100742.16;;;15.86;65.87
72857;BME280;62742;52.136;4.500;2023-09-19T00:35:33;100745.38;;;15.94;65.94
72857;BME280;62742;52.136;4.500;2023-09-19T00:38:00;100742.66;;;15.96;65.46
72857;BME280;62742;52.136;4.500;2023-09-19T00:40:28;100743.00;;;15.86;66.45
72857;BME280;62742;52.136;4.500;2023-09-19T00:42:58;100741.31;;;15.85;65.87
72857;BME280;62742;52.136;4.500;2023-09-19T00:45:26;100742.22;;;15.84;66.32
72857;BME280;62742;52.136;4.500;2023-09-19T00:47:52;100739.50;;;15.86;66.18
72857;BME280;62742;52.136;4.500;2023-09-19T00:50:23;100748.06;;;15.93;66.22
72857;BME280;62742;52.136;4.500;2023-09-19T00:52:54;100744.13;;;16.03;66.65
72857;BME280;62742;52.136;4.500;2023-09-19T00:55:25;100754.00;;;16.21;66.14
72857;BME280;62742;52.136;4.500;2023-09-19T00:57:56;100748.94;;;16.15;66.89
72857;BME280;62742;52.136;4.500;2023-09-19T01:00:23;100751.28;;;16.23;66.04
72857;BME280;62742;52.136;4.500;2023-09-19T01:02:50;100758.19;;;16.27;66.16
72857;BME280;62742;52.136;4.500;2023-09-19T01:05:17;100756.34;;;16.07;66.69
72857;BME280;62742;52.136;4.500;2023-09-19T01:07:44;100758.06;;;16.08;66.81
72857;BME280;62742;52.136;4.500;2023-09-19T01:10:14;100752.38;;;15.95;67.09
72857;BME280;62742;52.136;4.500;2023-09-19T01:12:52;100753.81;;;16.04;67.10
72857;BME280;62742;52.136;4.500;2023-09-19T01:18:02;100765.13;;;16.09;67.46
72857;BME280;62742;52.136;4.500;2023-09-19T01:31:45;100766.09;;;16.06;67.46
72857;BME280;62742;52.136;4.500;2023-09-19T01:34:13;100761.34;;;16.15;67.76
72857;BME280;62742;52.136;4.500;2023-09-19T01:36:39;100757.06;;;16.11;67.83
72857;BME280;62742;52.136;4.500;2023-09-19T01:39:11;100760.03;;;16.03;68.50
72857;BME280;62742;52.136;4.500;2023-09-19T01:42:05;100760.78;;;16.06;69.00
72857;BME280;62742;52.136;4.500;2023-09-19T01:47:28;100767.44;;;15.95;69.48
72857;BME280;62742;52.136;4.500;2023-09-19T01:53:05;100768.91;;;16.02;69.83
72857;BME280;62742;52.136;4.500;2023-09-19T01:55:47;100767.13;;;16.02;68.59
72857;BME280;62742;52.136;4.500;2023-09-19T02:01:14;100759.97;;;16.04;68.78
72857;BME280;62742;52.136;4.500;2023-09-19T02:03:46;100763.59;;;16.02;68.82
72857;BME280;62742;52.136;4.500;2023-09-19T02:06:15;100760.84;;;16.05;68.80
72857;BME280;62742;52.136;4.500;2023-09-19T02:08:44;100768.78;;;16.05;68.77
72857;BME280;62742;52.136;4.500;2023-09-19T02:11:12;100756.34;;;16.07;68.60
72857;BME280;62742;52.136;4.500;2023-09-19T02:13:39;100766.50;;;15.96;68.89
72857;BME280;62742;52.136;4.500;2023-09-19T02:16:07;100767.78;;;15.85;68.55
72857;BME280;62742;52.136;4.500;2023-09-19T02:18:35;100767.69;;;15.88;68.71
72857;BME280;62742;52.136;4.500;2023-09-19T02:21:02;100773.09;;;15.85;69.19
72857;BME280;62742;52.136;4.500;2023-09-19T02:23:30;100768.72;;;15.84;68.38
72857;BME280;62742;52.136;4.500;2023-09-19T02:25:57;100771.81;;;15.72;69.56
72857;BME280;62742;52.136;4.500;2023-09-19T02:28:24;100774.09;;;15.58;69.72
72857;BME280;62742;52.136;4.500;2023-09-19T02:30:50;100786.97;;;15.68;68.75
72857;BME280;62742;52.136;4.500;2023-09-19T02:33:17;100781.09;;;15.84;67.96
72857;BME280;62742;52.136;4.500;2023-09-19T02:35:43;100787.38;;;15.81;67.92
72857;BME280;62742;52.136;4.500;2023-09-19T02:38:10;100782.00;;;15.83;67.87
72857;BME280;62742;52.136;4.500;2023-09-19T02:40:37;100787.63;;;15.75;67.91
72857;BME280;62742;52.136;4.500;2023-09-19T02:43:04;100773.72;;;15.92;68.39
72857;BME280;62742;52.136;4.500;2023-09-19T02:45:31;100775.19;;;15.99;67.30
72857;BME280;62742;52.136;4.500;2023-09-19T02:47:58;100774.34;;;15.99;67.38
72857;BME280;62742;52.136;4.500;2023-09-19T02:50:24;100769.41;;;15.89;67.96
72857;BME280;62742;52.136;4.500;2023-09-19T02:52:51;100780.72;;;15.93;68.32
72857;BME280;62742;52.136;4.500;2023-09-19T02:55:18;100767.69;;;15.88;68.75
72857;BME280;62742;52.136;4.500;2023-09-19T02:57:50;100765.09;;;15.87;69.37
72857;BME280;62742;52.136;4.500;2023-09-19T03:00:23;100771.88;;;15.94;69.50
72857;BME280;62742;52.136;4.500;2023-09-19T03:02:53;100772.56;;;15.99;69.33
72857;BME280;62742;52.136;4.500;2023-09-19T03:05:22;100773.97;;;16.08;69.59
72857;BME280;62742;52.136;4.500;2023-09-19T03:07:49;100780.56;;;15.98;70.20
72857;BME280;62742;52.136;4.500;2023-09-19T03:10:20;100778.53;;;16.04;69.86
72857;BME280;62742;52.136;4.500;2023-09-19T03:12:47;100773.47;;;15.98;70.24
72857;BME280;62742;52.136;4.500;2023-09-19T03:15:15;100766.94;;;16.07;70.82
72857;BME280;62742;52.136;4.500;2023-09-19T03:17:44;100774.88;;;16.07;71.04
72857;BME280;62742;52.136;4.500;2023-09-19T03:20:11;100769.34;;;16.13;71.07
72857;BME280;62742;52.136;4.500;2023-09-19T03:22:40;100759.66;;;16.12;70.63
72857;BME280;62742;52.136;4.500;2023-09-19T03:25:07;100767.94;;;16.04;70.34
72857;BME280;62742;52.136;4.500;2023-09-19T03:27:39;100766.25;;;16.02;70.89
72857;BME280;62742;52.136;4.500;2023-09-19T03:30:06;100765.47;;;16.00;70.19
72857;BME280;62742;52.136;4.500;2023-09-19T03:32:43;100768.09;;;16.00;69.82
72857;BME280;62742;52.136;4.500;2023-09-19T03:35:13;100769.28;;;15.93;70.21
72857;BME280;62742;52.136;4.500;2023-09-19T03:37:43;100770.66;;;15.79;70.89
72857;BME280;62742;52.136;4.500;2023-09-19T03:40:10;100781.97;;;15.84;69.75
72857;BME280;62742;52.136;4.500;2023-09-19T03:42:41;100786.16;;;15.90;69.23
72857;BME280;62742;52.136;4.500;2023-09-19T03:45:08;100781.09;;;15.84;69.08
72857;BME280;62742;52.136;4.500;2023-09-19T03:47:39;100776.53;;;15.87;68.43
72857;BME280;62742;52.136;4.500;2023-09-19T03:50:06;100786.47;;;15.82;68.41
72857;BME280;62742;52.136;4.500;2023-09-19T03:52:34;100788.78;;;15.90;67.89
72857;BME280;62742;52.136;4.500;2023-09-19T03:55:00;100791.66;;;15.85;67.91
72857;BME280;62742;52.136;4.500;2023-09-19T03:57:28;100780.59;;;15.73;69.20
72857;BME280;62742;52.136;4.500;2023-09-19T03:59:55;100790.50;;;15.67;70.00
72857;BME280;62742;52.136;4.500;2023-09-19T04:02:22;100785.66;;;15.80;68.67
72857;BME280;62742;52.136;4.500;2023-09-19T04:04:51;100792.56;;;15.84;68.60
72857;BME280;62742;52.136;4.500;2023-09-19T04:07:18;100800.88;;;15.75;68.79
72857;BME280;62742;52.136;4.500;2023-09-19T04:09:48;100803.31;;;15.80;69.13
72857;BME280;62742;52.136;4.500;2023-09-19T04:12:15;100793.28;;;15.88;68.79
72857;BME280;62742;52.136;4.500;2023-09-19T04:14:43;100797.75;;;15.87;69.54
72857;BME280;62742;52.136;4.500;2023-09-19T04:17:09;100797.69;;;15.89;69.91
72857;BME280;62742;52.136;4.500;2023-09-19T04:19:37;100808.47;;;15.84;70.54
72857;BME280;62742;52.136;4.500;2023-09-19T04:22:03;100802.69;;;15.97;69.76
72857;BME280;62742;52.136;4.500;2023-09-19T04:24:30;100802.81;;;15.94;70.09
72857;BME280;62742;52.136;4.500;2023-09-19T04:26:58;100814.41;;;15.66;71.04
72857;BME280;62742;52.136;4.500;2023-09-19T04:29:25;100810.88;;;15.91;68.62
72857;BME280;62742;52.136;4.500;2023-09-19T04:31:56;100810.53;;;15.76;67.89
72857;BME280;62742;52.136;4.500;2023-09-19T04:34:27;100816.50;;;15.81;67.23
72857;BME280;62742;52.136;4.500;2023-09-19T04:36:54;100822.75;;;15.80;66.27
72857;BME280;62742;52.136;4.500;2023-09-19T04:39:24;100822.25;;;15.69;67.10
72857;BME280;62742;52.136;4.500;2023-09-19T04:41:51;100816.25;;;15.64;67.26
72857;BME280;62742;52.136;4.500;2023-09-19T04:44:19;100826.84;;;15.64;67.48
72857;BME280;62742;52.136;4.500;2023-09-19T04:46:45;100828.28;;;15.73;67.08
72857;BME280;62742;52.136;4.500;2023-09-19T04:49:12;100823.78;;;15.76;65.67
72857;BME280;62742;52.136;4.500;2023-09-19T04:51:39;100825.59;;;15.74;65.91
72857;BME280;62742;52.136;4.500;2023-09-19T04:54:06;100814.19;;;15.72;66.91
72857;BME280;62742;52.136;4.500;2023-09-19T04:56:33;100821.16;;;15.75;67.36
72857;BME280;62742;52.136;4.500;2023-09-19T04:59:00;100815.91;;;15.73;67.60
72857;BME280;62742;52.136;4.500;2023-09-19T05:01:27;100829.22;;;15.71;67.33
72857;BME280;62742;52.136;4.500;2023-09-19T05:03:54;100831.63;;;15.79;67.64
72857;BME280;62742;52.136;4.500;2023-09-19T05:06:20;100831.41;;;15.85;66.77
72857;BME280;62742;52.136;4.500;2023-09-19T05:08:49;100823.78;;;15.76;66.76
72857;BME280;62742;52.136;4.500;2023-09-19T05:11:20;100823.78;;;15.75;68.22
72857;BME280;62742;52.136;4.500;2023-09-19T05:13:49;100822.00;;;15.77;68.00
72857;BME280;62742;52.136;4.500;2023-09-19T05:16:21;100814.66;;;15.60;69.41
72857;BME280;62742;52.136;4.500;2023-09-19T05:18:51;100812.50;;;15.69;69.65
72857;BME280;62742;52.136;4.500;2023-09-19T05:21:18;100814.53;;;15.63;70.39
72857;BME280;62742;52.136;4.500;2023-09-19T05:23:44;100807.94;;;15.73;70.18
72857;BME280;62742;52.136;4.500;2023-09-19T05:26:11;100823.06;;;15.71;71.04
72857;BME280;62742;52.136;4.500;2023-09-19T05:28:38;100812.16;;;15.55;71.99
72857;BME280;62742;52.136;4.500;2023-09-19T05:31:04;100820.44;;;15.69;71.06
72857;BME280;62742;52.136;4.500;2023-09-19T05:33:31;100819.81;;;15.63;71.92
72857;BME280;62742;52.136;4.500;2023-09-19T05:35:59;100820.06;;;15.57;71.79
72857;BME280;62742;52.136;4.500;2023-09-19T05:38:25;100822.25;;;15.69;71.55
72857;BME280;62742;52.136;4.500;2023-09-19T05:40:53;100824.75;;;15.74;71.54
72857;BME280;62742;52.136;4.500;2023-09-19T05:43:20;100829.91;;;15.78;71.81
72857;BME280;62742;52.136;4.500;2023-09-19T05:45:46;100832.59;;;15.77;71.79
72857;BME280;62742;52.136;4.500;2023-09-19T05:48:14;100838.75;;;15.77;71.06
72857;BME280;62742;52.136;4.500;2023-09-19T05:50:42;100836.00;;;15.80;71.97
72857;BME280;62742;52.136;4.500;2023-09-19T05:53:10;100840.88;;;15.91;71.43
72857;BME280;62742;52.136;4.500;2023-09-19T05:55:40;100847.72;;;15.97;72.42
72857;BME280;62742;52.136;4.500;2023-09-19T05:58:07;100834.97;;;15.84;72.71
72857;BME280;62742;52.136;4.500;2023-09-19T06:00:35;100833.03;;;15.88;73.17
72857;BME280;62742;52.136;4.500;2023-09-19T06:03:04;100831.84;;;15.97;73.04
72857;BME280;62742;52.136;4.500;2023-09-19T06:05:30;100836.78;;;16.06;72.64
72857;BME280;62742;52.136;4.500;2023-09-19T06:07:59;100837.13;;;16.20;71.49
72857;BME280;62742;52.136;4.500;2023-09-19T06:10:27;100844.75;;;16.06;71.78
72857;BME280;62742;52.136;4.500;2023-09-19T06:12:55;100843.47;;;16.16;71.67
72857;BME280;62742;52.136;4.500;2023-09-19T06:15:24;100846.13;;;16.16;73.07
72857;BME280;62742;52.136;4.500;2023-09-19T06:17:55;100844.44;;;16.14;74.45
72857;BME280;62742;52.136;4.500;2023-09-19T06:20:23;100850.28;;;16.00;77.04
72857;BME280;62742;52.136;4.500;2023-09-19T06:22:51;100842.84;;;15.86;78.04
72857;BME280;62742;52.136;4.500;2023-09-19T06:25:19;100853.97;;;15.96;78.21
72857;BME280;62742;52.136;4.500;2023-09-19T06:27:50;100858.34;;;15.97;78.15
72857;BME280;62742;52.136;4.500;2023-09-19T06:30:21;100858.59;;;15.91;79.12
72857;BME280;62742;52.136;4.500;2023-09-19T06:32:58;100862.25;;;15.86;79.58
72857;BME280;62742;52.136;4.500;2023-09-19T06:35:27;100868.38;;;15.88;79.27
72857;BME280;62742;52.136;4.500;2023-09-19T06:37:55;100857.78;;;15.88;78.34
72857;BME280;62742;52.136;4.500;2023-09-19T06:40:23;100859.50;;;15.89;77.36
72857;BME280;62742;52.136;4.500;2023-09-19T06:42:51;100861.72;;;16.00;75.60
72857;BME280;62742;52.136;4.500;2023-09-19T06:45:18;100856.22;;;16.06;72.83
72857;BME280;62742;52.136;4.500;2023-09-19T06:47:46;100859.53;;;16.12;71.71
72857;BME280;62742;52.136;4.500;2023-09-19T06:50:21;100861.03;;;16.19;71.84
72857;BME280;62742;52.136;4.500;2023-09-19T06:52:50;100853.47;;;16.32;70.01
72857;BME280;62742;52.136;4.500;2023-09-19T06:55:19;100862.22;;;16.34;69.69
72857;BME280;62742;52.136;4.500;2023-09-19T06:57:47;100862.97;;;16.37;70.71
72857;BME280;62742;52.136;4.500;2023-09-19T07:00:15;100860.81;;;16.47;70.56
72857;BME280;62742;52.136;4.500;2023-09-19T07:02:45;100865.25;;;16.69;73.74
72857;BME280;62742;52.136;4.500;2023-09-19T07:05:11;100861.50;;;16.74;74.98
72857;BME280;62742;52.136;4.500;2023-09-19T07:07:38;100864.09;;;16.76;76.32
72857;BME280;62742;52.136;4.500;2023-09-19T07:10:05;100866.47;;;16.82;76.21
72857;BME280;62742;52.136;4.500;2023-09-19T07:12:32;100871.50;;;16.90;76.42
72857;BME280;62742;52.136;4.500;2023-09-19T07:14:59;100872.59;;;16.84;76.46
72857;BME280;62742;52.136;4.500;2023-09-19T07:17:25;100871.28;;;16.94;76.78
72857;BME280;62742;52.136;4.500;2023-09-19T07:19:52;100864.53;;;16.87;76.76
72857;BME280;62742;52.136;4.500;2023-09-19T07:22:19;100872.38;;;17.11;76.73
72857;BME280;62742;52.136;4.500;2023-09-19T07:24:45;100873.25;;;17.11;76.92
72857;BME280;62742;52.136;4.500;2023-09-19T07:27:13;100868.69;;;17.15;76.40
72857;BME280;62742;52.136;4.500;2023-09-19T07:29:39;100872.59;;;17.27;75.51
72857;BME280;62742;52.136;4.500;2023-09-19T07:32:06;100875.72;;;17.16;75.91
72857;BME280;62742;52.136;4.500;2023-09-19T07:34:36;100887.13;;;17.38;76.60
72857;BME280;62742;52.136;4.500;2023-09-19T07:37:05;100885.97;;;17.46;75.70
72857;BME280;62742;52.136;4.500;2023-09-19T07:39:31;100883.44;;;17.43;76.11
72857;BME280;62742;52.136;4.500;2023-09-19T07:41:57;100884.81;;;17.31;75.75
72857;BME280;62742;52.136;4.500;2023-09-19T07:44:26;100892.25;;;17.23;77.11
72857;BME280;62742;52.136;4.500;2023-09-19T07:46:52;100896.59;;;17.25;76.82
72857;BME280;62742;52.136;4.500;2023-09-19T07:49:19;100883.63;;;17.38;77.20
72857;BME280;62742;52.136;4.500;2023-09-19T07:51:46;100883.31;;;17.46;76.10
72857;BME280;62742;52.136;4.500;2023-09-19T07:54:12;100890.91;;;17.53;75.96
72857;BME280;62742;52.136;4.500;2023-09-19T07:56:40;100884.06;;;17.68;76.24
72857;BME280;62742;52.136;4.500;2023-09-19T07:59:07;100884.53;;;17.78;75.75
72857;BME280;62742;52.136;4.500;2023-09-19T08:01:34;100872.06;;;17.99;75.06
72857;BME280;62742;52.136;4.500;2023-09-19T08:04:01;100854.75;;;18.09;73.57
72857;BME280;62742;52.136;4.500;2023-09-19T08:06:28;100867.53;;;18.01;74.39
72857;BME280;62742;52.136;4.500;2023-09-19T08:08:56;100854.03;;;17.87;74.15
72857;BME280;62742;52.136;4.500;2023-09-19T08:11:26;100844.94;;;17.72;74.14
72857;BME280;62742;52.136;4.500;2023-09-19T08:13:56;100848.25;;;17.77;74.76
72857;BME280;62742;52.136;4.500;2023-09-19T08:16:24;100855.75;;;17.88;74.19
72857;BME280;62742;52.136;4.500;2023-09-19T08:18:51;100847.19;;;18.00;74.33
72857;BME280;62742;52.136;4.500;2023-09-19T08:21:22;100853.81;;;17.91;73.25
72857;BME280;62742;52.136;4.500;2023-09-19T08:23:50;100850.66;;;18.02;73.96
72857;BME280;62742;52.136;4.500;2023-09-19T08:26:16;100845.03;;;17.89;73.76
72857;BME280;62742;52.136;4.500;2023-09-19T08:28:43;100850.03;;;17.76;74.51
72857;BME280;62742;52.136;4.500;2023-09-19T08:31:09;100860.44;;;17.81;74.11
72857;BME280;62742;52.136;4.500;2023-09-19T08:33:37;100851.03;;;17.74;74.01
72857;BME280;62742;52.136;4.500;2023-09-19T08:36:04;100862.63;;;17.52;75.19
72857;BME280;62742;52.136;4.500;2023-09-19T08:38:31;100854.25;;;17.62;75.31
72857;BME280;62742;52.136;4.500;2023-09-19T08:41:00;100866.53;;;17.64;73.68
72857;BME280;62742;52.136;4.500;2023-09-19T08:43:27;100869.47;;;17.58;74.64
72857;BME280;62742;52.136;4.500;2023-09-19T08:46:02;100864.97;;;17.39;75.91
72857;BME280;62742;52.136;4.500;2023-09-19T08:48:54;100862.44;;;17.36;75.01
72857;BME280;62742;52.136;4.500;2023-09-19T08:51:36;100857.41;;;17.30;75.28
72857;BME280;62742;52.136;4.500;2023-09-19T08:54:26;100870.41;;;17.16;76.49
72857;BME280;62742;52.136;4.500;2023-09-19T08:57:00;100877.09;;;17.04;77.34
72857;BME280;62742;52.136;4.500;2023-09-19T08:59:35;100878.78;;;17.27;77.09
72857;BME280;62742;52.136;4.500;2023-09-19T09:02:11;100882.88;;;17.14;78.51
72857;BME280;62742;52.136;4.500;2023-09-19T09:04:40;100871.19;;;16.97;81.40
72857;BME280;62742;52.136;4.500;2023-09-19T09:07:12;100861.41;;;17.20;79.95
72857;BME280;62742;52.136;4.500;2023-09-19T09:09:39;100858.72;;;17.41;80.35
72857;BME280;62742;52.136;4.500;2023-09-19T09:12:13;100856.34;;;17.74;78.85
72857;BME280;62742;52.136;4.500;2023-09-19T09:14:45;100868.63;;;17.97;76.39
72857;BME280;62742;52.136;4.500;2023-09-19T09:17:15;100852.69;;;17.97;75.56
72857;BME280;62742;52.136;4.500;2023-09-19T09:19:43;100850.34;;;18.46;74.84
72857;BME280;62742;52.136;4.500;2023-09-19T09:22:10;100842.88;;;18.72;72.25
72857;BME280;62742;52.136;4.500;2023-09-19T09:24:56;100844.47;;;18.94;70.93
72857;BME280;62742;52.136;4.500;2023-09-19T09:27:34;100866.53;;;18.78;71.99
72857;BME280;62742;52.136;4.500;2023-09-19T09:30:00;100853.06;;;18.81;71.95
72857;BME280;62742;52.136;4.500;2023-09-19T09:32:29;100850.56;;;18.78;71.29
72857;BME280;62742;52.136;4.500;2023-09-19T09:35:00;100840.59;;;18.64;71.15
72857;BME280;62742;52.136;4.500;2023-09-19T09:37:28;100848.00;;;18.58;71.92
72857;BME280;62742;52.136;4.500;2023-09-19T09:40:01;100841.50;;;18.63;71.93
72857;BME280;62742;52.136;4.500;2023-09-19T09:42:41;100833.31;;;18.68;73.02
72857;BME280;62742;52.136;4.500;2023-09-19T09:45:23;100838.50;;;18.71;71.46
72857;BME280;62742;52.136;4.500;2023-09-19T09:48:00;100843.06;;;18.86;70.59
72857;BME280;62742;52.136;4.500;2023-09-19T09:50:32;100829.47;;;18.93;70.91
72857;BME280;62742;52.136;4.500;2023-09-19T09:53:26;100824.78;;;18.98;70.32
72857;BME280;62742;52.136;4.500;2023-09-19T09:56:08;100818.56;;;18.97;70.84
72857;BME280;62742;52.136;4.500;2023-09-19T09:58:38;100825.59;;;18.81;71.31
72857;BME280;62742;52.136;4.500;2023-09-19T10:01:18;100809.38;;;19.20;69.91
72857;BME280;62742;52.136;4.500;2023-09-19T10:03:46;100795.50;;;19.31;69.64
72857;BME280;62742;52.136;4.500;2023-09-19T10:06:18;100805.56;;;19.59;69.32
72857;BME280;62742;52.136;4.500;2023-09-19T10:09:09;100802.34;;;19.53;68.05
72857;BME280;62742;52.136;4.500;2023-09-19T10:11:47;100803.66;;;19.61;67.62
72857;BME280;62742;52.136;4.500;2023-09-19T10:14:25;100803.81;;;19.25;69.21
72857;BME280;62742;52.136;4.500;2023-09-19T10:16:58;100795.91;;;19.23;69.04
72857;BME280;62742;52.136;4.500;2023-09-19T10:19:42;100796.88;;;19.05;69.90
72857;BME280;62742;52.136;4.500;2023-09-19T10:22:16;100791.81;;;19.16;70.36
72857;BME280;62742;52.136;4.500;2023-09-19T10:24:49;100789.34;;;19.47;69.43
72857;BME280;62742;52.136;4.500;2023-09-19T10:27:22;100792.84;;;19.47;69.98
72857;BME280;62742;52.136;4.500;2023-09-19T10:29:52;100781.63;;;19.58;68.08
72857;BME280;62742;52.136;4.500;2023-09-19T10:32:22;100777.31;;;19.89;69.39
72857;BME280;62742;52.136;4.500;2023-09-19T10:34:50;100782.72;;;19.87;67.73
72857;BME280;62742;52.136;4.500;2023-09-19T10:37:18;100789.09;;;20.01;67.70
72857;BME280;62742;52.136;4.500;2023-09-19T10:39:49;100778.53;;;19.83;68.71
72857;BME280;62742;52.136;4.500;2023-09-19T10:42:19;100778.59;;;19.97;69.36
72857;BME280;62742;52.136;4.500;2023-09-19T10:44:52;100781.00;;;19.86;69.26
72857;BME280;62742;52.136;4.500;2023-09-19T10:47:21;100780.44;;;19.63;68.89
72857;BME280;62742;52.136;4.500;2023-09-19T10:49:51;100771.06;;;19.56;70.72
72857;BME280;62742;52.136;4.500;2023-09-19T10:52:23;100799.78;;;20.01;68.33
72857;BME280;62742;52.136;4.500;2023-09-19T10:54:55;100783.69;;;20.02;68.23
72857;BME280;62742;52.136;4.500;2023-09-19T10:57:25;100774.81;;;20.02;67.90
72857;BME280;62742;52.136;4.500;2023-09-19T11:00:02;100778.53;;;19.99;68.07
72857;BME280;62742;52.136;4.500;2023-09-19T11:05:40;100775.56;;;19.72;67.72
72857;BME280;62742;52.136;4.500;2023-09-19T11:08:08;100761.31;;;19.55;68.00
72857;BME280;62742;52.136;4.500;2023-09-19T11:10:45;100756.81;;;19.40;69.13
72857;BME280;62742;52.136;4.500;2023-09-19T11:13:29;100756.22;;;19.35;69.86
72857;BME280;62742;52.136;4.500;2023-09-19T11:16:04;100757.78;;;19.39;69.49
72857;BME280;62742;52.136;4.500;2023-09-19T11:26:49;100760.47;;;19.39;70.22
72857;BME280;62742;52.136;4.500;2023-09-19T11:29:28;100764.63;;;19.27;69.91
72857;BME280;62742;52.136;4.500;2023-09-19T11:31:58;100757.22;;;18.99;71.85
72857;BME280;62742;52.136;4.500;2023-09-19T11:39:40;100737.00;;;19.12;71.46
72857;BME280;62742;52.136;4.500;2023-09-19T11:42:47;100746.81;;;19.12;71.60
72857;BME280;62742;52.136;4.500;2023-09-19T11:48:23;100759.03;;;18.98;72.88
72857;BME280;62742;52.136;4.500;2023-09-19T11:50:53;100763.75;;;18.93;73.09
72857;BME280;62742;52.136;4.500;2023-09-19T11:53:23;100764.22;;;19.01;74.03
72857;BME280;62742;52.136;4.500;2023-09-19T11:55:58;100765.72;;;18.90;75.88
72857;BME280;62742;52.136;4.500;2023-09-19T11:58:27;100764.44;;;18.62;77.09
72857;BME280;62742;52.136;4.500;2023-09-19T12:00:56;100768.72;;;18.64;76.62
72857;BME280;62742;52.136;4.500;2023-09-19T12:03:29;100761.66;;;18.82;75.35
72857;BME280;62742;52.136;4.500;2023-09-19T12:05:58;100746.16;;;18.72;76.13
72857;BME280;62742;52.136;4.500;2023-09-19T12:08:25;100739.22;;;18.69;75.83
72857;BME280;62742;52.136;4.500;2023-09-19T12:10:53;100746.09;;;18.73;75.19
72857;BME280;62742;52.136;4.500;2023-09-19T12:13:21;100746.41;;;19.02;72.85
72857;BME280;62742;52.136;4.500;2023-09-19T12:15:48;100733.22;;;19.50;72.82
72857;BME280;62742;52.136;4.500;2023-09-19T12:20:56;100749.88;;;19.87;70.48
72857;BME280;62742;52.136;4.500;2023-09-19T12:23:24;100738.69;;;19.80;70.44
72857;BME280;62742;52.136;4.500;2023-09-19T12:25:54;100753.69;;;19.65;71.39
72857;BME280;62742;52.136;4.500;2023-09-19T12:28:26;100755.50;;;19.65;71.92
72857;BME280;62742;52.136;4.500;2023-09-19T12:30:56;100760.84;;;19.65;72.21
72857;BME280;62742;52.136;4.500;2023-09-19T12:33:23;100759.16;;;19.79;71.42
72857;BME280;62742;52.136;4.500;2023-09-19T12:35:53;100757.22;;;19.66;71.43
72857;BME280;62742;52.136;4.500;2023-09-19T12:38:27;100730.22;;;19.72;72.10
72857;BME280;62742;52.136;4.500;2023-09-19T12:40:57;100741.50;;;19.93;70.54
72857;BME280;62742;52.136;4.500;2023-09-19T12:43:28;100734.03;;;19.99;70.55
72857;BME280;62742;52.136;4.500;2023-09-19T12:45:58;100744.88;;;19.80;70.39
72857;BME280;62742;52.136;4.500;2023-09-19T12:48:26;100740.06;;;19.87;70.75
72857;BME280;62742;52.136;4.500;2023-09-19T12:51:10;100739.63;;;19.79;70.28
72857;BME280;62742;52.136;4.500;2023-09-19T12:53:42;100735.06;;;19.81;70.02
72857;BME280;62742;52.136;4.500;2023-09-19T12:56:13;100728.31;;;19.74;70.10
72857;BME280;62742;52.136;4.500;2023-09-19T12:58:58;100734.59;;;19.57;70.31
72857;BME280;62742;52.136;4.500;2023-09-19T13:01:27;100748.97;;;19.54;69.84
72857;BME280;62742;52.136;4.500;2023-09-19T13:04:24;100737.72;;;19.32;72.69
72857;BME280;62742;52.136;4.500;2023-09-19T13:06:56;100740.16;;;19.36;72.51
72857;BME280;62742;52.136;4.500;2023-09-19T13:09:27;100729.50;;;19.52;72.16
72857;BME280;62742;52.136;4.500;2023-09-19T13:12:34;100745.06;;;19.44;72.89
72857;BME280;62742;52.136;4.500;2023-09-19T13:17:43;100761.16;;;18.92;78.04
72857;BME280;62742;52.136;4.500;2023-09-19T13:20:26;100751.69;;;18.86;79.01
72857;BME280;62742;52.136;4.500;2023-09-19T13:22:54;100745.56;;;19.01;77.41
72857;BME280;62742;52.136;4.500;2023-09-19T13:25:26;100749.38;;;19.13;77.02
72857;BME280;62742;52.136;4.500;2023-09-19T13:27:57;100745.31;;;19.06;77.05
72857;BME280;62742;52.136;4.500;2023-09-19T13:30:27;100725.41;;;19.13;76.07
72857;BME280;62742;52.136;4.500;2023-09-19T13:33:08;100735.09;;;19.14;75.53
72857;BME280;62742;52.136;4.500;2023-09-19T13:35:38;100735.91;;;18.99;76.39
72857;BME280;62742;52.136;4.500;2023-09-19T13:38:06;100748.53;;;18.95;76.75
72857;BME280;62742;52.136;4.500;2023-09-19T13:40:38;100749.22;;;18.81;77.35
72857;BME280;62742;52.136;4.500;2023-09-19T13:43:05;100763.53;;;18.79;78.91
72857;BME280;62742;52.136;4.500;2023-09-19T13:45:32;100770.91;;;18.56;80.11
72857;BME280;62742;52.136;4.500;2023-09-19T13:48:00;100763.75;;;18.39;82.30
72857;BME280;62742;52.136;4.500;2023-09-19T13:50:26;100755.69;;;18.41;82.77
72857;BME280;62742;52.136;4.500;2023-09-19T13:52:55;100745.31;;;18.54;81.77